Kisbey, Canada
Current Conditions -  °F | °C
As of 6:00 AM on Friday 31 Oct 2014 (Local Time) from CYEN Reporting Station
Few Clouds Few Clouds  
Wind Chill:   Ceiling: Unl
Heat Index: 18°   Visibility: 15mi
Dew Point: 16°   Wind: 9mph
Humidity: 93%   Direction: 110°ESE
Pressure: 30.37"   Gusts: NA
Location:  49.63°N, 102.67°W
Report Text: CYEN 311200Z 11008KT 15SM FEW250 M08/M09 A3037 RMK CI0 FROIN SLP322
Loading
Personal Weather Stations






























Interactive Weather Map
Tropical Storm Tracking
New forecast layout! Learn more

10-Day Weather Forecast

Advertisements
Track Severe Weather on mobile